sensor_id;sensor_type;location;lat;lon;timestamp;pressure;altitude;pressure_sealevel;temperature;humidity
8894;BME280;4483;48.622;9.230;2024-01-07T00:01:08;97244.09;;;5.00;100.00
8894;BME280;4483;48.622;9.230;2024-01-07T00:03:35;97247.47;;;5.01;100.00
8894;BME280;4483;48.622;9.230;2024-01-07T00:06:03;97244.97;;;4.99;100.00
8894;BME280;4483;48.622;9.230;2024-01-07T00:08:30;97252.59;;;5.01;100.00
8894;BME280;4483;48.622;9.230;2024-01-07T00:10:57;97255.19;;;4.99;100.00
8894;BME280;4483;48.622;9.230;2024-01-07T00:13:23;97253.50;;;4.98;100.00
8894;BME280;4483;48.622;9.230;2024-01-07T00:15:50;97247.53;;;4.99;100.00
8894;BME280;4483;48.622;9.230;2024-01-07T00:18:19;97244.97;;;4.99;100.00
8894;BME280;4483;48.622;9.230;2024-01-07T00:20:45;97252.59;;;5.01;100.00
8894;BME280;4483;48.622;9.230;2024-01-07T00:23:13;97248.34;;;5.01;100.00
8894;BME280;4483;48.622;9.230;2024-01-07T00:25:40;97251.69;;;5.02;100.00
8894;BME280;4483;48.622;9.230;2024-01-07T00:28:06;97250.84;;;5.03;100.00
8894;BME280;4483;48.622;9.230;2024-01-07T00:30:33;97250.00;;;5.02;100.00
8894;BME280;4483;48.622;9.230;2024-01-07T00:33:00;97249.94;;;5.04;100.00
8894;BME280;4483;48.622;9.230;2024-01-07T00:35:26;97249.94;;;5.04;100.00
8894;BME280;4483;48.622;9.230;2024-01-07T00:37:53;97245.69;;;5.04;100.00
8894;BME280;4483;48.622;9.230;2024-01-07T00:40:23;97242.34;;;5.02;100.00
8894;BME280;4483;48.622;9.230;2024-01-07T00:42:49;97246.47;;;5.06;100.00
8894;BME280;4483;48.622;9.230;2024-01-07T00:45:16;97247.31;;;5.07;100.00
8894;BME280;4483;48.622;9.230;2024-01-07T00:47:43;97248.13;;;5.07;100.00
8894;BME280;4483;48.622;9.230;2024-01-07T00:50:09;97244.72;;;5.08;100.00
8894;BME280;4483;48.622;9.230;2024-01-07T00:52:36;97250.66;;;5.09;100.00
8894;BME280;4483;48.622;9.230;2024-01-07T00:55:04;97247.22;;;5.10;100.00
8894;BME280;4483;48.622;9.230;2024-01-07T00:57:32;97250.66;;;5.09;100.00
8894;BME280;4483;48.622;9.230;2024-01-07T01:00:00;97252.34;;;5.10;100.00
8894;BME280;4483;48.622;9.230;2024-01-07T01:02:30;97252.38;;;5.08;100.00
8894;BME280;4483;48.622;9.230;2024-01-07T01:04:57;97254.94;;;5.08;100.00
8894;BME280;4483;48.622;9.230;2024-01-07T01:07:24;97243.88;;;5.08;100.00
8894;BME280;4483;48.622;9.230;2024-01-07T01:09:50;97248.97;;;5.08;100.00
8894;BME280;4483;48.622;9.230;2024-01-07T01:12:17;97254.94;;;5.08;100.00
8894;BME280;4483;48.622;9.230;2024-01-07T01:14:45;97254.09;;;5.08;100.00
8894;BME280;4483;48.622;9.230;2024-01-07T01:17:11;97254.09;;;5.08;100.00
8894;BME280;4483;48.622;9.230;2024-01-07T01:19:38;97260.03;;;5.08;100.00
8894;BME280;4483;48.622;9.230;2024-01-07T01:22:04;97254.09;;;5.08;100.00
8894;BME280;4483;48.622;9.230;2024-01-07T01:24:31;97267.69;;;5.08;100.00
8894;BME280;4483;48.622;9.230;2024-01-07T01:26:58;97267.75;;;5.07;100.00
8894;BME280;4483;48.622;9.230;2024-01-07T01:29:24;97271.09;;;5.09;100.00
8894;BME280;4483;48.622;9.230;2024-01-07T01:31:52;97263.38;;;5.10;100.00
8894;BME280;4483;48.622;9.230;2024-01-07T01:34:19;97269.28;;;5.13;100.00
8894;BME280;4483;48.622;9.230;2024-01-07T01:36:46;97265.84;;;5.13;100.00
8894;BME280;4483;48.622;9.230;2024-01-07T01:39:12;97270.94;;;5.13;100.00
8894;BME280;4483;48.622;9.230;2024-01-07T01:41:39;97263.28;;;5.13;100.00
8894;BME280;4483;48.622;9.230;2024-01-07T01:44:06;97265.84;;;5.13;100.00
8894;BME280;4483;48.622;9.230;2024-01-07T01:46:33;97266.63;;;5.16;100.00
8894;BME280;4483;48.622;9.230;2024-01-07T01:49:01;97264.88;;;5.18;100.00
8894;BME280;4483;48.622;9.230;2024-01-07T01:51:28;97265.75;;;5.17;100.00
8894;BME280;4483;48.622;9.230;2024-01-07T01:53:55;97265.75;;;5.17;100.00
8894;BME280;4483;48.622;9.230;2024-01-07T01:56:25;97263.94;;;5.20;100.00
8894;BME280;4483;48.622;9.230;2024-01-07T01:58:53;97258.03;;;5.20;100.00
8894;BME280;4483;48.622;9.230;2024-01-07T02:01:21;97260.44;;;5.24;100.00
8894;BME280;4483;48.622;9.230;2024-01-07T02:03:49;97255.41;;;5.21;100.00
8894;BME280;4483;48.622;9.230;2024-01-07T02:06:18;97257.22;;;5.18;100.00
8894;BME280;4483;48.622;9.230;2024-01-07T02:08:45;97264.03;;;5.17;100.00
8894;BME280;4483;48.622;9.230;2024-01-07T02:11:16;97260.56;;;5.20;100.00
8894;BME280;4483;48.622;9.230;2024-01-07T02:13:43;97268.22;;;5.20;100.00
8894;BME280;4483;48.622;9.230;2024-01-07T02:16:10;97267.38;;;5.19;100.00
8894;BME280;4483;48.622;9.230;2024-01-07T02:18:37;97261.53;;;5.16;100.00
8894;BME280;4483;48.622;9.230;2024-01-07T02:21:04;97269.16;;;5.17;100.00
8894;BME280;4483;48.622;9.230;2024-01-07T02:23:32;97270.00;;;5.18;100.00
8894;BME280;4483;48.622;9.230;2024-01-07T02:26:00;97266.75;;;5.13;100.00
8894;BME280;4483;48.622;9.230;2024-01-07T02:28:27;97271.91;;;5.09;100.00
8894;BME280;4483;48.622;9.230;2024-01-07T02:30:53;97264.19;;;5.11;100.00
8894;BME280;4483;48.622;9.230;2024-01-07T02:33:20;97272.72;;;5.11;100.00
8894;BME280;4483;48.622;9.230;2024-01-07T02:35:47;97266.75;;;5.11;100.00
8894;BME280;4483;48.622;9.230;2024-01-07T02:38:14;97276.16;;;5.10;100.00
8894;BME280;4483;48.622;9.230;2024-01-07T02:40:40;97276.09;;;5.12;100.00
8894;BME280;4483;48.622;9.230;2024-01-07T02:43:09;97276.09;;;5.12;100.00
8894;BME280;4483;48.622;9.230;2024-01-07T02:45:35;97273.59;;;5.10;100.00
8894;BME280;4483;48.622;9.230;2024-01-07T02:48:02;97268.50;;;5.10;100.00
8894;BME280;4483;48.622;9.230;2024-01-07T02:50:29;97267.56;;;5.13;100.00
8894;BME280;4483;48.622;9.230;2024-01-07T02:52:55;97276.22;;;5.07;100.00
8894;BME280;4483;48.622;9.230;2024-01-07T02:55:22;97271.09;;;5.09;100.00
8894;BME280;4483;48.622;9.230;2024-01-07T02:57:49;97276.22;;;5.07;100.00
8894;BME280;4483;48.622;9.230;2024-01-07T03:00:17;97266.94;;;5.05;100.00
8894;BME280;4483;48.622;9.230;2024-01-07T03:02:44;97269.50;;;5.05;100.00
8894;BME280;4483;48.622;9.230;2024-01-07T03:05:10;97280.53;;;5.05;100.00
8894;BME280;4483;48.622;9.230;2024-01-07T03:07:37;97270.41;;;5.02;100.00
8894;BME280;4483;48.622;9.230;2024-01-07T03:10:05;97275.47;;;5.04;100.00
8894;BME280;4483;48.622;9.230;2024-01-07T03:12:32;97275.41;;;5.05;100.00
8894;BME280;4483;48.622;9.230;2024-01-07T03:14:59;97278.78;;;5.07;100.00
8894;BME280;4483;48.622;9.230;2024-01-07T03:17:27;97273.59;;;5.10;100.00
8894;BME280;4483;48.622;9.230;2024-01-07T03:19:53;97282.97;;;5.10;100.00
8894;BME280;4483;48.622;9.230;2024-01-07T03:22:20;97272.66;;;5.13;100.00
8894;BME280;4483;48.622;9.230;2024-01-07T03:24:46;97282.06;;;5.13;100.00
8894;BME280;4483;48.622;9.230;2024-01-07T03:27:13;97280.47;;;5.08;100.00
8894;BME280;4483;48.622;9.230;2024-01-07T03:29:40;97283.06;;;5.07;100.00
8894;BME280;4483;48.622;9.230;2024-01-07T03:32:07;97277.06;;;5.08;100.00
8894;BME280;4483;48.622;9.230;2024-01-07T03:34:35;97284.72;;;5.08;100.00
8894;BME280;4483;48.622;9.230;2024-01-07T03:37:01;97285.63;;;5.07;100.00
8894;BME280;4483;48.622;9.230;2024-01-07T03:39:27;97287.22;;;5.09;100.00
8894;BME280;4483;48.622;9.230;2024-01-07T03:41:54;97291.59;;;5.06;100.00
8894;BME280;4483;48.622;9.230;2024-01-07T03:44:21;97290.75;;;5.05;100.00
8894;BME280;4483;48.622;9.230;2024-01-07T03:46:48;97289.97;;;5.03;100.00
8894;BME280;4483;48.622;9.230;2024-01-07T03:49:15;97295.09;;;5.02;100.00
8894;BME280;4483;48.622;9.230;2024-01-07T03:51:44;97297.63;;;5.03;100.00
8894;BME280;4483;48.622;9.230;2024-01-07T03:54:11;97295.84;;;5.05;100.00
8894;BME280;4483;48.622;9.230;2024-01-07T03:56:37;97289.94;;;5.05;100.00
8894;BME280;4483;48.622;9.230;2024-01-07T03:59:04;97294.19;;;5.04;100.00
8894;BME280;4483;48.622;9.230;2024-01-07T04:01:30;97285.72;;;5.02;100.00
8894;BME280;4483;48.622;9.230;2024-01-07T04:03:57;97295.94;;;5.02;100.00
8894;BME280;4483;48.622;9.230;2024-01-07T04:06:24;97294.22;;;5.03;100.00
8894;BME280;4483;48.622;9.230;2024-01-07T04:08:51;97298.53;;;5.01;100.00
8894;BME280;4483;48.622;9.230;2024-01-07T04:11:18;97299.44;;;4.98;100.00
8894;BME280;4483;48.622;9.230;2024-01-07T04:13:45;97305.44;;;4.97;100.00
8894;BME280;4483;48.622;9.230;2024-01-07T04:16:17;97304.56;;;4.98;100.00
8894;BME280;4483;48.622;9.230;2024-01-07T04:18:44;97305.44;;;4.97;100.00
8894;BME280;4483;48.622;9.230;2024-01-07T04:21:11;97300.41;;;4.94;100.00
8894;BME280;4483;48.622;9.230;2024-01-07T04:23:39;97306.34;;;4.95;100.00
8894;BME280;4483;48.622;9.230;2024-01-07T04:26:07;97314.84;;;4.95;100.00
8894;BME280;4483;48.622;9.230;2024-01-07T04:28:34;97314.06;;;4.93;100.00
8894;BME280;4483;48.622;9.230;2024-01-07T04:31:00;97314.06;;;4.93;100.00
8894;BME280;4483;48.622;9.230;2024-01-07T04:33:27;97316.72;;;4.89;100.00
8894;BME280;4483;48.622;9.230;2024-01-07T04:35:54;97324.50;;;4.84;100.00
8894;BME280;4483;48.622;9.230;2024-01-07T04:38:23;97316.91;;;4.83;100.00
8894;BME280;4483;48.622;9.230;2024-01-07T04:40:50;97314.34;;;4.83;100.00
8894;BME280;4483;48.622;9.230;2024-01-07T04:43:18;97319.41;;;4.84;100.00
8894;BME280;4483;48.622;9.230;2024-01-07T04:45:44;97314.31;;;4.84;100.00
8894;BME280;4483;48.622;9.230;2024-01-07T04:48:11;97321.06;;;4.85;100.00
8894;BME280;4483;48.622;9.230;2024-01-07T04:50:39;97321.06;;;4.85;100.00
8894;BME280;4483;48.622;9.230;2024-01-07T04:53:05;97327.81;;;4.88;100.00
8894;BME280;4483;48.622;9.230;2024-01-07T04:55:32;97329.56;;;4.86;100.00
8894;BME280;4483;48.622;9.230;2024-01-07T04:57:59;97334.78;;;4.83;100.00
8894;BME280;4483;48.622;9.230;2024-01-07T05:00:28;97337.38;;;4.81;100.00
8894;BME280;4483;48.622;9.230;2024-01-07T05:02:54;97335.63;;;4.83;100.00
8894;BME280;4483;48.622;9.230;2024-01-07T05:05:21;97334.81;;;4.80;100.00
8894;BME280;4483;48.622;9.230;2024-01-07T05:07:47;97336.53;;;4.81;100.00
8894;BME280;4483;48.622;9.230;2024-01-07T05:10:14;97331.41;;;4.81;100.00
8894;BME280;4483;48.622;9.230;2024-01-07T05:12:41;97334.16;;;4.73;100.00
8894;BME280;4483;48.622;9.230;2024-01-07T05:15:08;97343.47;;;4.76;100.00
8894;BME280;4483;48.622;9.230;2024-01-07T05:17:37;97340.03;;;4.77;100.00
8894;BME280;4483;48.622;9.230;2024-01-07T05:20:04;97344.19;;;4.81;100.00
8894;BME280;4483;48.622;9.230;2024-01-07T05:22:32;97348.53;;;4.77;100.00
8894;BME280;4483;48.622;9.230;2024-01-07T05:25:00;97344.28;;;4.76;100.00
8894;BME280;4483;48.622;9.230;2024-01-07T05:27:26;97353.81;;;4.70;100.00
8894;BME280;4483;48.622;9.230;2024-01-07T05:29:53;97353.81;;;4.70;100.00
8894;BME280;4483;48.622;9.230;2024-01-07T05:32:20;97350.50;;;4.66;100.00
8894;BME280;4483;48.622;9.230;2024-01-07T05:34:48;97359.06;;;4.64;100.00
8894;BME280;4483;48.622;9.230;2024-01-07T05:37:15;97356.47;;;4.65;100.00
8894;BME280;4483;48.622;9.230;2024-01-07T05:39:42;97359.03;;;4.65;100.00
8894;BME280;4483;48.622;9.230;2024-01-07T05:42:09;97362.56;;;4.61;100.00
8894;BME280;4483;48.622;9.230;2024-01-07T05:44:36;97360.81;;;4.62;100.00
8894;BME280;4483;48.622;9.230;2024-01-07T05:47:03;97361.56;;;4.65;100.00
8894;BME280;4483;48.622;9.230;2024-01-07T05:49:29;97370.03;;;4.67;100.00
8894;BME280;4483;48.622;9.230;2024-01-07T05:51:57;97375.25;;;4.63;100.00
8894;BME280;4483;48.622;9.230;2024-01-07T05:54:24;97372.75;;;4.60;100.00
8894;BME280;4483;48.622;9.230;2024-01-07T05:56:51;97369.34;;;4.61;100.00
8894;BME280;4483;48.622;9.230;2024-01-07T05:59:17;97372.03;;;4.55;100.00
8894;BME280;4483;48.622;9.230;2024-01-07T06:01:44;97377.09;;;4.56;100.00
8894;BME280;4483;48.622;9.230;2024-01-07T06:04:11;97377.94;;;4.57;100.00
8894;BME280;4483;48.622;9.230;2024-01-07T06:06:37;97377.91;;;4.58;100.00
8894;BME280;4483;48.622;9.230;2024-01-07T06:09:05;97381.34;;;4.57;100.00
8894;BME280;4483;48.622;9.230;2024-01-07T06:11:32;97380.66;;;4.51;100.00
8894;BME280;4483;48.622;9.230;2024-01-07T06:13:58;97379.78;;;4.52;100.00
8894;BME280;4483;48.622;9.230;2024-01-07T06:16:25;97385.72;;;4.52;100.00
8894;BME280;4483;48.622;9.230;2024-01-07T06:18:52;97382.38;;;4.50;100.00
8894;BME280;4483;48.622;9.230;2024-01-07T06:21:18;97385.78;;;4.49;100.00
8894;BME280;4483;48.622;9.230;2024-01-07T06:23:45;97387.47;;;4.50;100.00
8894;BME280;4483;48.622;9.230;2024-01-07T06:26:13;97393.41;;;4.51;100.00
8894;BME280;4483;48.622;9.230;2024-01-07T06:28:41;97391.66;;;4.53;100.00
8894;BME280;4483;48.622;9.230;2024-01-07T06:31:07;97388.25;;;4.54;100.00
8894;BME280;4483;48.622;9.230;2024-01-07T06:33:34;97389.09;;;4.53;100.00
8894;BME280;4483;48.622;9.230;2024-01-07T06:36:01;97398.41;;;4.55;100.00
8894;BME280;4483;48.622;9.230;2024-01-07T06:38:28;97400.97;;;4.55;100.00
8894;BME280;4483;48.622;9.230;2024-01-07T06:40:54;97399.22;;;4.57;100.00
8894;BME280;4483;48.622;9.230;2024-01-07T06:43:26;97405.13;;;4.59;100.00
8894;BME280;4483;48.622;9.230;2024-01-07T06:45:53;97409.34;;;4.60;100.00
8894;BME280;4483;48.622;9.230;2024-01-07T06:48:20;97411.03;;;4.60;100.00
8894;BME280;4483;48.622;9.230;2024-01-07T06:50:46;97412.72;;;4.61;100.00
8894;BME280;4483;48.622;9.230;2024-01-07T06:53:13;97414.50;;;4.57;100.00
8894;BME280;4483;48.622;9.230;2024-01-07T06:55:40;97417.88;;;4.59;100.00
8894;BME280;4483;48.622;9.230;2024-01-07T06:58:07;97428.06;;;4.59;100.00
8894;BME280;4483;48.622;9.230;2024-01-07T07:00:35;97428.06;;;4.59;100.00
8894;BME280;4483;48.622;9.230;2024-01-07T07:03:01;97433.09;;;4.62;100.00
8894;BME280;4483;48.622;9.230;2024-01-07T07:05:28;97433.22;;;4.56;100.00
8894;BME280;4483;48.622;9.230;2024-01-07T07:07:55;97434.03;;;4.58;100.00
8894;BME280;4483;48.622;9.230;2024-01-07T07:10:21;97437.47;;;4.57;100.00
8894;BME280;4483;48.622;9.230;2024-01-07T07:12:48;97439.94;;;4.60;100.00
8894;BME280;4483;48.622;9.230;2024-01-07T07:15:16;97443.44;;;4.58;100.00
8894;BME280;4483;48.622;9.230;2024-01-07T07:17:44;97449.34;;;4.58;100.00
8894;BME280;4483;48.622;9.230;2024-01-07T07:20:11;97445.13;;;4.57;100.00
8894;BME280;4483;48.622;9.230;2024-01-07T07:22:38;97456.19;;;4.58;100.00
8894;BME280;4483;48.622;9.230;2024-01-07T07:25:05;97456.22;;;4.55;100.00
8894;BME280;4483;48.622;9.230;2024-01-07T07:27:32;97460.47;;;4.54;100.00
8894;BME280;4483;48.622;9.230;2024-01-07T07:29:58;97466.44;;;4.55;100.00
8894;BME280;4483;48.622;9.230;2024-01-07T07:32:25;97466.44;;;4.55;100.00
8894;BME280;4483;48.622;9.230;2024-01-07T07:34:53;97468.09;;;4.57;100.00
8894;BME280;4483;48.622;9.230;2024-01-07T07:37:20;97473.25;;;4.54;100.00
8894;BME280;4483;48.622;9.230;2024-01-07T07:39:46;97481.69;;;4.56;100.00
8894;BME280;4483;48.622;9.230;2024-01-07T07:42:13;97477.41;;;4.58;100.00
8894;BME280;4483;48.622;9.230;2024-01-07T07:44:39;97477.34;;;4.61;100.00
8894;BME280;4483;48.622;9.230;2024-01-07T07:47:06;97480.84;;;4.57;100.00
8894;BME280;4483;48.622;9.230;2024-01-07T07:49:33;97478.25;;;4.59;100.00
8894;BME280;4483;48.622;9.230;2024-01-07T07:52:02;97478.28;;;4.57;100.00
8894;BME280;4483;48.622;9.230;2024-01-07T07:54:29;97483.47;;;4.53;100.00
8894;BME280;4483;48.622;9.230;2024-01-07T07:56:55;97483.56;;;4.50;100.00
8894;BME280;4483;48.622;9.230;2024-01-07T07:59:22;97487.78;;;4.52;100.00
8894;BME280;4483;48.622;9.230;2024-01-07T08:01:49;97490.28;;;4.54;100.00
8894;BME280;4483;48.622;9.230;2024-01-07T08:04:15;97491.09;;;4.54;100.00
8894;BME280;4483;48.622;9.230;2024-01-07T08:06:42;97496.06;;;4.60;100.00
8894;BME280;4483;48.622;9.230;2024-01-07T08:09:11;97491.09;;;4.54;100.00
8894;BME280;4483;48.622;9.230;2024-01-07T08:11:38;97493.56;;;4.59;100.00
8894;BME280;4483;48.622;9.230;2024-01-07T08:14:04;97497.81;;;4.58;100.00
8894;BME280;4483;48.622;9.230;2024-01-07T08:16:32;97501.97;;;4.62;100.00
8894;BME280;4483;48.622;9.230;2024-01-07T08:18:59;97504.75;;;4.53;100.00
8894;BME280;4483;48.622;9.230;2024-01-07T08:21:25;97503.06;;;4.52;100.00
8894;BME280;4483;48.622;9.230;2024-01-07T08:23:52;97508.94;;;4.54;100.00
8894;BME280;4483;48.622;9.230;2024-01-07T08:26:20;97518.38;;;4.52;100.00
8894;BME280;4483;48.622;9.230;2024-01-07T08:28:48;97519.19;;;4.53;100.00
8894;BME280;4483;48.622;9.230;2024-01-07T08:31:15;97520.03;;;4.53;100.00
8894;BME280;4483;48.622;9.230;2024-01-07T08:33:42;97514.13;;;4.51;100.00
8894;BME280;4483;48.622;9.230;2024-01-07T08:36:08;97526.16;;;4.46;100.00
8894;BME280;4483;48.622;9.230;2024-01-07T08:38:35;97532.19;;;4.42;100.00
8894;BME280;4483;48.622;9.230;2024-01-07T08:41:02;97531.41;;;4.39;100.00
8894;BME280;4483;48.622;9.230;2024-01-07T08:43:31;97533.19;;;4.35;100.00
8894;BME280;4483;48.622;9.230;2024-01-07T08:45:57;97534.97;;;4.32;100.00
8894;BME280;4483;48.622;9.230;2024-01-07T08:48:24;97534.06;;;4.34;100.00
8894;BME280;4483;48.622;9.230;2024-01-07T08:50:51;97541.69;;;4.34;100.00
8894;BME280;4483;48.622;9.230;2024-01-07T08:53:17;97552.06;;;4.28;100.00
8894;BME280;4483;48.622;9.230;2024-01-07T08:55:44;97547.88;;;4.24;100.00
8894;BME280;4483;48.622;9.230;2024-01-07T08:58:11;97552.25;;;4.19;100.00
8894;BME280;4483;48.622;9.230;2024-01-07T09:00:41;97552.09;;;4.25;100.00
8894;BME280;4483;48.622;9.230;2024-01-07T09:03:07;97566.47;;;4.29;100.00
8894;BME280;4483;48.622;9.230;2024-01-07T09:05:34;97566.53;;;4.26;100.00
8894;BME280;4483;48.622;9.230;2024-01-07T09:08:00;97559.84;;;4.21;100.00
8894;BME280;4483;48.622;9.230;2024-01-07T09:10:27;97565.00;;;4.19;100.00
8894;BME280;4483;48.622;9.230;2024-01-07T09:12:54;97571.69;;;4.23;100.00
8894;BME280;4483;48.622;9.230;2024-01-07T09:15:20;97577.75;;;4.19;100.00
8894;BME280;4483;48.622;9.230;2024-01-07T09:17:49;97567.50;;;4.21;100.00
8894;BME280;4483;48.622;9.230;2024-01-07T09:20:15;97583.56;;;4.24;100.00
8894;BME280;4483;48.622;9.230;2024-01-07T09:22:42;97579.31;;;4.25;100.00
8894;BME280;4483;48.622;9.230;2024-01-07T09:25:09;97582.66;;;4.28;100.00
8894;BME280;4483;48.622;9.230;2024-01-07T09:27:36;97571.63;;;4.26;100.00
8894;BME280;4483;48.622;9.230;2024-01-07T09:30:04;97585.06;;;4.36;100.00
8894;BME280;4483;48.622;9.230;2024-01-07T09:32:31;97587.06;;;4.20;100.00
8894;BME280;4483;48.622;9.230;2024-01-07T09:34:58;97586.22;;;4.18;100.00
8894;BME280;4483;48.622;9.230;2024-01-07T09:37:25;97587.22;;;4.11;100.00
8894;BME280;4483;48.622;9.230;2024-01-07T09:39:52;97588.03;;;4.13;100.00
8894;BME280;4483;48.622;9.230;2024-01-07T09:42:19;97587.16;;;4.14;100.00
8894;BME280;4483;48.622;9.230;2024-01-07T09:44:46;97586.28;;;4.17;100.00
8894;BME280;4483;48.622;9.230;2024-01-07T09:47:14;97583.66;;;4.21;100.00
8894;BME280;4483;48.622;9.230;2024-01-07T09:49:41;97588.69;;;4.24;100.00
8894;BME280;4483;48.622;9.230;2024-01-07T09:52:10;97585.38;;;4.19;100.00
8894;BME280;4483;48.622;9.230;2024-01-07T09:54:38;97584.47;;;4.22;100.00
8894;BME280;4483;48.622;9.230;2024-01-07T09:57:06;97589.75;;;4.13;100.00
8894;BME280;4483;48.622;9.230;2024-01-07T09:59:33;97581.25;;;4.14;100.00
8894;BME280;4483;48.622;9.230;2024-01-07T10:02:00;97590.03;;;3.99;100.00
8894;BME280;4483;48.622;9.230;2024-01-07T10:04:27;97593.56;;;3.90;100.00
8894;BME280;4483;48.622;9.230;2024-01-07T10:06:54;97599.00;;;3.72;100.00
8894;BME280;4483;48.622;9.230;2024-01-07T10:09:23;97597.31;;;3.71;100.00
8894;BME280;4483;48.622;9.230;2024-01-07T10:11:51;97598.09;;;3.75;100.00
8894;BME280;4483;48.622;9.230;2024-01-07T10:14:18;97604.16;;;3.69;100.00
8894;BME280;4483;48.622;9.230;2024-01-07T10:16:47;97600.69;;;3.73;100.00
8894;BME280;4483;48.622;9.230;2024-01-07T10:19:19;97596.41;;;3.74;100.00
8894;BME280;4483;48.622;9.230;2024-01-07T10:21:46;97594.81;;;3.68;100.00
8894;BME280;4483;48.622;9.230;2024-01-07T10:24:13;97605.03;;;3.67;100.00
8894;BME280;4483;48.622;9.230;2024-01-07T10:26:41;97599.25;;;3.59;100.00
8894;BME280;4483;48.622;9.230;2024-01-07T10:29:08;97603.56;;;3.54;100.00
8894;BME280;4483;48.622;9.230;2024-01-07T10:31:35;97604.47;;;3.51;100.00
8894;BME280;4483;48.622;9.230;2024-01-07T10:34:01;97605.31;;;3.50;100.00
8894;BME280;4483;48.622;9.230;2024-01-07T10:36:29;97612.06;;;3.53;100.00
8894;BME280;4483;48.622;9.230;2024-01-07T10:38:57;97611.19;;;3.54;100.00
8894;BME280;4483;48.622;9.230;2024-01-07T10:41:25;97608.81;;;3.45;100.00
8894;BME280;4483;48.622;9.230;2024-01-07T10:43:53;97613.03;;;3.46;100.00
8894;BME280;4483;48.622;9.230;2024-01-07T10:46:21;97607.06;;;3.47;100.00
8894;BME280;4483;48.622;9.230;2024-01-07T10:48:53;97609.59;;;3.50;100.00
8894;BME280;4483;48.622;9.230;2024-01-07T10:51:21;97618.91;;;3.51;100.00
8894;BME280;4483;48.622;9.230;2024-01-07T10:53:52;97622.25;;;3.53;100.00
8894;BME280;4483;48.622;9.230;2024-01-07T10:56:22;97613.81;;;3.51;100.00
8894;BME280;4483;48.622;9.230;2024-01-07T10:58:52;97620.69;;;3.46;100.00
8894;BME280;4483;48.622;9.230;2024-01-07T11:01:20;97617.34;;;3.42;100.00
8894;BME280;4483;48.622;9.230;2024-01-07T11:03:57;97624.88;;;3.50;100.00
8894;BME280;4483;48.622;9.230;2024-01-07T11:06:31;97623.94;;;3.54;100.00
8894;BME280;4483;48.622;9.230;2024-01-07T11:09:06;97624.84;;;3.51;100.00
8894;BME280;4483;48.622;9.230;2024-01-07T11:11:37;97619.91;;;3.42;100.00
8894;BME280;4483;48.622;9.230;2024-01-07T11:14:34;97627.66;;;3.35;100.00
8894;BME280;4483;48.622;9.230;2024-01-07T11:17:02;97626.03;;;3.29;100.00
8894;BME280;4483;48.622;9.230;2024-01-07T11:19:29;97630.38;;;3.24;100.00
8894;BME280;4483;48.622;9.230;2024-01-07T11:22:21;97618.47;;;3.25;100.00
8894;BME280;4483;48.622;9.230;2024-01-07T11:24:48;97629.47;;;3.27;100.00
8894;BME280;4483;48.622;9.230;2024-01-07T11:27:15;97626.09;;;3.25;100.00
8894;BME280;4483;48.622;9.230;2024-01-07T11:29:42;97633.84;;;3.19;100.00
8894;BME280;4483;48.622;9.230;2024-01-07T11:32:12;97632.91;;;3.23;100.00
8894;BME280;4483;48.622;9.230;2024-01-07T11:34:39;97629.53;;;3.21;100.00
8894;BME280;4483;48.622;9.230;2024-01-07T11:37:10;97630.47;;;3.17;100.00
8894;BME280;4483;48.622;9.230;2024-01-07T11:39:37;97629.66;;;3.15;100.00
8894;BME280;4483;48.622;9.230;2024-01-07T11:42:04;97625.38;;;3.15;100.00
8894;BME280;4483;48.622;9.230;2024-01-07T11:44:34;97633.91;;;3.14;100.00
8894;BME280;4483;48.622;9.230;2024-01-07T11:47:01;97630.44;;;3.20;100.00
8894;BME280;4483;48.622;9.230;2024-01-07T11:49:28;97630.44;;;3.18;100.00
8894;BME280;4483;48.622;9.230;2024-01-07T11:51:55;97632.09;;;3.21;100.00
8894;BME280;4483;48.622;9.230;2024-01-07T11:54:22;97625.22;;;3.27;100.00
8894;BME280;4483;48.622;9.230;2024-01-07T11:56:48;97627.78;;;3.26;100.00
8894;BME280;4483;48.622;9.230;2024-01-07T11:59:15;97619.38;;;3.19;100.00
8894;BME280;4483;48.622;9.230;2024-01-07T12:01:42;97626.94;;;3.25;100.00
8894;BME280;4483;48.622;9.230;2024-01-07T12:04:08;97622.69;;;3.27;100.00
8894;BME280;4483;48.622;9.230;2024-01-07T12:06:38;97627.88;;;3.20;100.00
8894;BME280;4483;48.622;9.230;2024-01-07T12:09:04;97630.38;;;3.24;100.00
8894;BME280;4483;48.622;9.230;2024-01-07T12:11:31;97632.00;;;3.27;100.00
8894;BME280;4483;48.622;9.230;2024-01-07T12:13:58;97629.47;;;3.27;100.00
8894;BME280;4483;48.622;9.230;2024-01-07T12:16:25;97636.19;;;3.31;100.00
8894;BME280;4483;48.622;9.230;2024-01-07T12:18:52;97642.09;;;3.33;100.00
8894;BME280;4483;48.622;9.230;2024-01-07T12:21:19;97638.75;;;3.31;100.00
8894;BME280;4483;48.622;9.230;2024-01-07T12:23:49;97634.66;;;3.19;100.00
8894;BME280;4483;48.622;9.230;2024-01-07T12:26:17;97630.41;;;3.21;100.00
8894;BME280;4483;48.622;9.230;2024-01-07T12:28:44;97631.38;;;3.13;100.00
8894;BME280;4483;48.622;9.230;2024-01-07T12:31:11;97644.81;;;3.21;100.00
8894;BME280;4483;48.622;9.230;2024-01-07T12:33:38;97636.25;;;3.26;100.00
8894;BME280;4483;48.622;9.230;2024-01-07T12:36:07;97646.44;;;3.28;100.00
8894;BME280;4483;48.622;9.230;2024-01-07T12:38:36;97646.50;;;3.23;100.00
8894;BME280;4483;48.622;9.230;2024-01-07T12:41:04;97650.03;;;3.15;100.00
8894;BME280;4483;48.622;9.230;2024-01-07T12:43:31;97647.44;;;3.16;100.00
8894;BME280;4483;48.622;9.230;2024-01-07T12:45:58;97648.44;;;3.08;100.00
8894;BME280;4483;48.622;9.230;2024-01-07T12:48:29;97652.69;;;3.07;100.00
8894;BME280;4483;48.622;9.230;2024-01-07T12:50:56;97654.34;;;3.08;100.00
8894;BME280;4483;48.622;9.230;2024-01-07T12:53:22;97657.00;;;3.00;100.00
8894;BME280;4483;48.622;9.230;2024-01-07T12:55:49;97651.91;;;3.00;100.00
8894;BME280;4483;48.622;9.230;2024-01-07T12:58:17;97656.19;;;2.97;100.00
8894;BME280;4483;48.622;9.230;2024-01-07T13:00:44;97656.22;;;2.95;100.00
8894;BME280;4483;48.622;9.230;2024-01-07T13:03:10;97648.63;;;2.92;100.00
8894;BME280;4483;48.622;9.230;2024-01-07T13:05:42;97653.81;;;2.85;100.00
8894;BME280;4483;48.622;9.230;2024-01-07T13:08:09;97657.31;;;2.78;100.00
8894;BME280;4483;48.622;9.230;2024-01-07T13:10:35;97659.00;;;2.77;100.00
8894;BME280;4483;48.622;9.230;2024-01-07T13:13:02;97657.28;;;2.79;100.00
8894;BME280;4483;48.622;9.230;2024-01-07T13:15:30;97666.59;;;2.82;100.00
8894;BME280;4483;48.622;9.230;2024-01-07T13:17:57;97673.34;;;2.83;100.00
8894;BME280;4483;48.622;9.230;2024-01-07T13:20:24;97677.59;;;2.82;100.00
8894;BME280;4483;48.622;9.230;2024-01-07T13:22:51;97677.66;;;2.79;100.00